This is the latest recevied weather packets stored in our database for station/object G4GVZ-1. If no packets are shown the sender has not sent any weather packets the latest 10 day(s).
| Time | Temp. | Humidity | Pressure | Rain* | Wind** | Luminosity | Snow |
|---|---|---|---|---|---|---|---|
| 1777754747 | 11.67° C | 97% | 1010.4 hPa | 2.79 mm | - | - | - |
| 1777753847 | 11.67° C | 96% | 1010.3 hPa | 2.79 mm | - | - | - |
| 1777752947 | 11.67° C | 96% | 1010.3 hPa | 1.52 mm | - | - | - |
| 1777752049 | 12.22° C | 96% | 1010.2 hPa | 0.76 mm | - | - | - |
| 1777751148 | 12.22° C | 95% | 1010.2 hPa | 0 mm | - | - | - |
| 1777750248 | 12.22° C | 97% | 1010.4 hPa | 0 mm | - | - | - |
| 1777749348 | 12.22° C | 94% | 1010.1 hPa | 0 mm | - | - | - |
| 1777748448 | 12.22° C | 94% | 1010.3 hPa | 0 mm | - | - | - |
| 1777747548 | 12.22° C | 93% | 1010.4 hPa | 0 mm | - | - | - |
| 1777746647 | 12.22° C | 93% | 1010.5 hPa | 0.25 mm | - | - | - |
| 1777745749 | 12.78° C | 93% | 1010.8 hPa | 0.76 mm | - | - | - |
| 1777744848 | 12.22° C | 93% | 1011.1 hPa | 1.78 mm | - | - | - |
| 1777743949 | 12.78° C | 93% | 1011.2 hPa | 3.05 mm | - | - | - |
| 1777743048 | 12.78° C | 92% | 1011.3 hPa | 5.33 mm | - | - | - |
| 1777742148 | 13.33° C | 92% | 1011.2 hPa | 5.59 mm | - | - | - |
| 1777741248 | 13.33° C | 90% | 1011.8 hPa | 5.33 mm | - | - | - |
| 1777740348 | 14.44° C | 87% | 1012.2 hPa | 3.81 mm | - | - | - |
| 1777739448 | 15° C | 82% | 1011.8 hPa | 1.52 mm | - | - | - |
| 1777738549 | 16.11° C | 79% | 1011.9 hPa | 0.76 mm | - | - | - |
| 1777737647 | 17.22° C | 70% | 1011.9 hPa | 0 mm | - | - | - |
| 1777736749 | 17.78° C | 65% | 1011.7 hPa | 0 mm | - | - | - |
| 1777735848 | 17.78° C | 63% | 1011.6 hPa | 0 mm | - | - | - |
| 1777734948 | 17.78° C | 62% | 1011.8 hPa | 0 mm | - | - | - |
| 1777734050 | 18.33° C | 62% | 1012.2 hPa | 0 mm | - | - | - |
| 1777733149 | 18.33° C | 60% | 1012.6 hPa | 0 mm | - | - | - |
* Rain latest hour (hover to see other rain measurements)
** Current wind speed in m/s (hover to see current wind gust speed)